Time;durP1;ratioP1;P1;durP2;ratioP2;P2;SDS_P1;SDS_P2;PMS_P1;PMS_P2;Temp;Humidity;BMP_temperature;BMP_pressure;BME280_temperature;BME280_humidity;BME280_pressure;Samples;Min_cycle;Max_cycle;Signal;HPM_P1;HPM_P2
2021/01/25 00:02:15;;;;;;;1.60;1.00;;;;;;;;;;5023764;28;20187;-83
2021/01/25 00:04:41;;;;;;;1.98;1.17;;;;;;;;;;5032190;28;20179;-83
2021/01/25 00:07:07;;;;;;;1.47;1.00;;;;;;;;;;5031320;28;20186;-85
2021/01/25 00:09:33;;;;;;;2.13;1.20;;;;;;;;;;5030054;28;20436;-85
2021/01/25 00:11:59;;;;;;;2.38;1.75;;;;;;;;;;5021081;28;20216;-84
2021/01/25 00:14:25;;;;;;;5.35;1.30;;;;;;;;;;5022843;28;20222;-85
2021/01/25 00:16:51;;;;;;;2.67;0.90;;;;;;;;;;5025335;28;20682;-84
2021/01/25 00:19:17;;;;;;;4.90;1.63;;;;;;;;;;5015220;28;20184;-82
2021/01/25 00:21:44;;;;;;;1.35;1.02;;;;;;;;;;5023497;28;20182;-85
2021/01/25 00:24:10;;;;;;;4.45;1.20;;;;;;;;;;5033722;28;20186;-85
2021/01/25 00:26:36;;;;;;;1.38;1.10;;;;;;;;;;5033638;28;20185;-87
2021/01/25 00:29:02;;;;;;;2.08;1.23;;;;;;;;;;5022681;28;20193;-83
2021/01/25 00:31:28;;;;;;;3.78;1.20;;;;;;;;;;5028731;28;20244;-86
2021/01/25 00:33:54;;;;;;;1.83;0.88;;;;;;;;;;5043854;28;20196;-84
2021/01/25 00:36:20;;;;;;;4.63;1.25;;;;;;;;;;5048086;28;20202;-86
2021/01/25 00:38:46;;;;;;;1.60;0.98;;;;;;;;;;5050012;28;20186;-85
2021/01/25 00:41:12;;;;;;;1.42;0.98;;;;;;;;;;5028632;28;20763;-85
2021/01/25 00:43:38;;;;;;;3.15;1.10;;;;;;;;;;5054988;28;20194;-88
2021/01/25 00:46:04;;;;;;;2.47;1.10;;;;;;;;;;5043651;28;20177;-84
2021/01/25 00:48:30;;;;;;;1.30;1.00;;;;;;;;;;5040855;28;20188;-85
2021/01/25 00:50:56;;;;;;;2.95;0.95;;;;;;;;;;5049921;28;20240;-87
2021/01/25 00:53:22;;;;;;;2.97;1.17;;;;;;;;;;5032482;28;20196;-84
2021/01/25 00:55:48;;;;;;;2.23;0.97;;;;;;;;;;5029845;28;20209;-86
2021/01/25 00:58:14;;;;;;;1.10;1.00;;;;;;;;;;5027930;28;20669;-86
2021/01/25 01:00:40;;;;;;;0.88;0.70;;;;;;;;;;5038727;28;20269;-84
2021/01/25 01:03:06;;;;;;;3.83;1.00;;;;;;;;;;5034991;28;20178;-82
2021/01/25 01:05:32;;;;;;;4.35;0.80;;;;;;;;;;5034550;28;20193;-86
2021/01/25 01:07:58;;;;;;;2.55;0.90;;;;;;;;;;5028741;28;20602;-84
2021/01/25 01:10:24;;;;;;;4.10;1.00;;;;;;;;;;5035968;28;20211;-84
2021/01/25 01:12:50;;;;;;;1.20;1.05;;;;;;;;;;5032022;28;20190;-84
2021/01/25 01:15:16;;;;;;;2.60;1.05;;;;;;;;;;5035881;28;20558;-82
2021/01/25 01:17:42;;;;;;;5.97;1.33;;;;;;;;;;5049699;28;20193;-83
2021/01/25 01:20:09;;;;;;;2.13;0.98;;;;;;;;;;5038381;28;20189;-82
2021/01/25 01:22:35;;;;;;;2.42;0.90;;;;;;;;;;5055609;28;20660;-82
2021/01/25 01:25:01;;;;;;;8.73;0.90;;;;;;;;;;5042114;28;20177;-83
2021/01/25 01:27:27;;;;;;;0.95;0.90;;;;;;;;;;5040087;28;20169;-83
2021/01/25 01:29:53;;;;;;;3.60;0.82;;;;;;;;;;5052081;28;20182;-82
2021/01/25 01:32:20;;;;;;;2.28;1.08;;;;;;;;;;5030979;28;20228;-82
2021/01/25 01:34:46;;;;;;;1.08;0.90;;;;;;;;;;5040008;28;20208;-85
2021/01/25 01:37:12;;;;;;;2.78;0.80;;;;;;;;;;5029826;28;20197;-85
2021/01/25 01:39:38;;;;;;;1.05;0.90;;;;;;;;;;5041458;28;20208;-83
2021/01/25 01:42:05;;;;;;;2.08;1.52;;;;;;;;;;5034649;28;20182;-85
2021/01/25 01:44:31;;;;;;;4.50;1.77;;;;;;;;;;5034165;28;20189;-84
2021/01/25 01:46:57;;;;;;;2.20;1.00;;;;;;;;;;5029694;28;20189;-85
2021/01/25 01:49:23;;;;;;;2.10;1.10;;;;;;;;;;5045397;28;20195;-84
2021/01/25 01:51:49;;;;;;;1.30;0.85;;;;;;;;;;5034966;28;20182;-86
2021/01/25 01:54:17;;;;;;;2.30;0.98;;;;;;;;;;5035742;28;20201;-85
2021/01/25 01:56:43;;;;;;;1.00;0.90;;;;;;;;;;5050402;28;20213;-83
2021/01/25 01:59:09;;;;;;;1.42;0.80;;;;;;;;;;5036180;28;20202;-85
2021/01/25 02:01:35;;;;;;;1.20;1.05;;;;;;;;;;5035426;28;20193;-83
2021/01/25 02:04:01;;;;;;;0.95;0.70;;;;;;;;;;5042144;28;20232;-84
2021/01/25 02:06:28;;;;;;;0.90;0.68;;;;;;;;;;5033155;28;20171;-84
2021/01/25 02:08:56;;;;;;;3.63;0.90;;;;;;;;;;5039327;28;20182;-84
2021/01/25 02:11:22;;;;;;;1.20;1.08;;;;;;;;;;5041533;28;20709;-86
2021/01/25 02:13:49;;;;;;;1.45;0.95;;;;;;;;;;5048306;28;20730;-82
2021/01/25 02:16:15;;;;;;;1.23;0.90;;;;;;;;;;5031026;28;20213;-84
2021/01/25 02:18:41;;;;;;;1.58;1.13;;;;;;;;;;5044182;28;20174;-84
2021/01/25 02:21:10;;;;;;;2.70;1.02;;;;;;;;;;5041428;28;20716;-84
2021/01/25 02:23:44;;;;;;;1.08;0.90;;;;;;;;;;5038592;28;20545;-86
2021/01/25 02:26:20;;;;;;;1.17;1.08;;;;;;;;;;5038235;28;20186;-83
2021/01/25 02:28:46;;;;;;;0.80;0.77;;;;;;;;;;5038470;28;20193;-85
2021/01/25 02:31:12;;;;;;;1.35;1.00;;;;;;;;;;5048844;28;20190;-86
2021/01/25 02:33:48;;;;;;;1.55;1.05;;;;;;;;;;5041034;28;20245;-84
2021/01/25 02:36:15;;;;;;;5.85;1.65;;;;;;;;;;5026481;28;20244;-84
2021/01/25 02:38:43;;;;;;;1.83;1.10;;;;;;;;;;5026287;28;20189;-85
2021/01/25 02:41:09;;;;;;;3.85;0.93;;;;;;;;;;5013806;28;20192;-84
2021/01/25 02:43:36;;;;;;;1.50;1.10;;;;;;;;;;5035279;28;20197;-84
2021/01/25 02:46:02;;;;;;;2.65;1.15;;;;;;;;;;5034079;28;20189;-85
2021/01/25 02:48:28;;;;;;;2.88;1.60;;;;;;;;;;5029004;28;20174;-85
2021/01/25 02:50:54;;;;;;;3.05;1.10;;;;;;;;;;5021890;28;20526;-85
2021/01/25 02:53:20;;;;;;;3.58;0.95;;;;;;;;;;5017868;28;20193;-83
2021/01/25 02:55:46;;;;;;;1.20;1.10;;;;;;;;;;5015635;28;20201;-83
2021/01/25 02:58:13;;;;;;;3.60;0.88;;;;;;;;;;5025414;28;20274;-83
2021/01/25 03:00:39;;;;;;;1.27;0.90;;;;;;;;;;5036098;28;20201;-84
2021/01/25 03:03:06;;;;;;;1.98;0.90;;;;;;;;;;5024750;28;20185;-82
2021/01/25 03:05:32;;;;;;;1.17;1.08;;;;;;;;;;5024349;28;20193;-85
2021/01/25 03:07:59;;;;;;;1.00;1.00;;;;;;;;;;5041137;28;20232;-83
2021/01/25 03:10:25;;;;;;;1.95;0.90;;;;;;;;;;5030250;28;20222;-83
2021/01/25 03:12:52;;;;;;;2.38;0.80;;;;;;;;;;5034213;28;20655;-82
2021/01/25 03:15:19;;;;;;;1.15;0.75;;;;;;;;;;5036119;28;20200;-83
2021/01/25 03:17:44;;;;;;;1.63;0.90;;;;;;;;;;5035761;28;20249;-86
2021/01/25 03:20:11;;;;;;;1.73;0.80;;;;;;;;;;5032422;28;20182;-84
2021/01/25 03:22:37;;;;;;;0.70;0.70;;;;;;;;;;5031733;28;20562;-84
2021/01/25 03:25:03;;;;;;;1.73;0.80;;;;;;;;;;5017345;28;20178;-85
2021/01/25 03:27:29;;;;;;;0.85;0.80;;;;;;;;;;5022533;28;20425;-84
2021/01/25 03:29:55;;;;;;;1.05;0.80;;;;;;;;;;5033536;28;20237;-84
2021/01/25 03:32:22;;;;;;;1.13;1.02;;;;;;;;;;5034993;28;20343;-84
2021/01/25 03:34:48;;;;;;;1.10;0.90;;;;;;;;;;5038669;28;20189;-84
2021/01/25 03:37:14;;;;;;;2.65;1.20;;;;;;;;;;5019259;28;20195;-84
2021/01/25 03:39:40;;;;;;;1.65;1.05;;;;;;;;;;5030597;28;20175;-86
2021/01/25 03:42:06;;;;;;;1.13;0.90;;;;;;;;;;5019841;28;20212;-84
2021/01/25 03:44:32;;;;;;;0.98;0.90;;;;;;;;;;5023208;28;20441;-84
2021/01/25 03:46:58;;;;;;;1.35;0.75;;;;;;;;;;5031420;28;20181;-85
2021/01/25 03:49:24;;;;;;;4.50;1.15;;;;;;;;;;5029144;28;20218;-85
2021/01/25 03:51:50;;;;;;;1.00;0.95;;;;;;;;;;5020064;28;20433;-85
2021/01/25 03:54:16;;;;;;;1.60;0.90;;;;;;;;;;5024719;28;20232;-84
2021/01/25 03:56:41;;;;;;;3.05;0.90;;;;;;;;;;5038778;28;20213;-85
2021/01/25 03:59:08;;;;;;;1.23;1.05;;;;;;;;;;5030951;28;20190;-85
2021/01/25 04:01:34;;;;;;;2.25;0.98;;;;;;;;;;5030452;28;20214;-85
2021/01/25 04:04:00;;;;;;;1.52;1.20;;;;;;;;;;5017770;28;20174;-86
2021/01/25 04:06:25;;;;;;;1.77;1.15;;;;;;;;;;5024974;28;20269;-86
2021/01/25 04:08:52;;;;;;;3.70;1.60;;;;;;;;;;5020226;28;20190;-84
2021/01/25 04:11:18;;;;;;;3.15;1.27;;;;;;;;;;5015894;28;20184;-85
2021/01/25 04:13:45;;;;;;;1.20;1.00;;;;;;;;;;5024300;28;20228;-85
2021/01/25 04:16:11;;;;;;;2.55;1.05;;;;;;;;;;5030899;28;20210;-85
2021/01/25 04:18:37;;;;;;;2.60;1.10;;;;;;;;;;5024928;28;20218;-84
2021/01/25 04:21:03;;;;;;;1.20;1.00;;;;;;;;;;5036607;28;20181;-85
2021/01/25 04:23:29;;;;;;;1.15;1.05;;;;;;;;;;5017460;28;20181;-85
2021/01/25 04:25:55;;;;;;;4.55;1.40;;;;;;;;;;5022607;28;20181;-84
2021/01/25 04:28:21;;;;;;;1.08;0.93;;;;;;;;;;5034804;28;20186;-85
2021/01/25 04:30:47;;;;;;;1.58;1.02;;;;;;;;;;5029597;28;20666;-85
2021/01/25 04:33:13;;;;;;;1.48;1.13;;;;;;;;;;5036957;28;20218;-84
2021/01/25 04:35:40;;;;;;;2.00;1.45;;;;;;;;;;5038058;28;20209;-85
2021/01/25 04:38:09;;;;;;;2.05;1.38;;;;;;;;;;5039689;28;20189;-84
2021/01/25 04:40:36;;;;;;;1.50;1.23;;;;;;;;;;5038515;28;20182;-84
2021/01/25 04:43:02;;;;;;;1.92;1.27;;;;;;;;;;5042058;28;20256;-84
2021/01/25 04:45:28;;;;;;;1.30;1.17;;;;;;;;;;5040965;28;20174;-86
2021/01/25 04:47:54;;;;;;;1.50;1.38;;;;;;;;;;5035111;28;20199;-85
2021/01/25 04:50:21;;;;;;;1.90;1.10;;;;;;;;;;5032497;28;20243;-85
2021/01/25 04:52:48;;;;;;;2.03;1.30;;;;;;;;;;5040641;28;20209;-85
2021/01/25 04:55:14;;;;;;;1.38;1.27;;;;;;;;;;5040252;28;20213;-86
2021/01/25 04:57:42;;;;;;;1.45;1.35;;;;;;;;;;5041164;28;20178;-84
2021/01/25 05:00:08;;;;;;;2.17;1.70;;;;;;;;;;5033879;28;20178;-82
2021/01/25 05:02:38;;;;;;;1.48;1.30;;;;;;;;;;5017210;28;20228;-86
2021/01/25 05:05:08;;;;;;;1.80;1.48;;;;;;;;;;5030962;28;20184;-84
2021/01/25 05:07:34;;;;;;;1.67;1.42;;;;;;;;;;5039474;28;20186;-83
2021/01/25 05:10:00;;;;;;;2.85;1.63;;;;;;;;;;5042180;28;20182;-84
2021/01/25 05:12:28;;;;;;;1.60;1.33;;;;;;;;;;5038753;28;20521;-85
2021/01/25 05:14:54;;;;;;;13.18;1.73;;;;;;;;;;5052051;28;20236;-84
2021/01/25 05:17:20;;;;;;;1.63;1.40;;;;;;;;;;5031835;28;20190;-83
2021/01/25 05:19:46;;;;;;;2.40;1.20;;;;;;;;;;5055211;28;20231;-85
2021/01/25 05:22:16;;;;;;;1.98;1.80;;;;;;;;;;5040287;28;20182;-82
2021/01/25 05:24:51;;;;;;;1.70;1.60;;;;;;;;;;5034000;28;20178;-84
2021/01/25 05:27:25;;;;;;;2.13;1.30;;;;;;;;;;5039037;28;20560;-84
2021/01/25 05:29:51;;;;;;;1.60;1.42;;;;;;;;;;5052492;28;20205;-84
2021/01/25 05:32:19;;;;;;;2.78;1.35;;;;;;;;;;5032608;28;20217;-85
2021/01/25 05:34:48;;;;;;;1.48;1.38;;;;;;;;;;5029278;28;20178;-85
2021/01/25 05:37:15;;;;;;;3.33;1.80;;;;;;;;;;5014349;28;20204;-83
2021/01/25 05:39:44;;;;;;;1.67;1.58;;;;;;;;;;5031028;28;20178;-84
2021/01/25 05:42:10;;;;;;;2.50;1.30;;;;;;;;;;5030489;28;20339;-84
2021/01/25 05:44:36;;;;;;;1.63;1.38;;;;;;;;;;5036151;28;20690;-86
2021/01/25 05:47:03;;;;;;;1.40;1.20;;;;;;;;;;5034311;28;20267;-87
2021/01/25 05:49:29;;;;;;;4.53;1.30;;;;;;;;;;5043566;28;20194;-86
2021/01/25 05:51:55;;;;;;;1.40;1.30;;;;;;;;;;5025293;28;20174;-85
2021/01/25 05:54:22;;;;;;;1.60;1.50;;;;;;;;;;5026934;28;20185;-84
2021/01/25 05:56:48;;;;;;;2.63;1.70;;;;;;;;;;5037799;28;20292;-83
2021/01/25 05:59:14;;;;;;;2.17;1.55;;;;;;;;;;5031125;28;20187;-85
2021/01/25 06:01:40;;;;;;;2.10;1.40;;;;;;;;;;5012544;28;20232;-86
2021/01/25 06:04:07;;;;;;;2.08;1.63;;;;;;;;;;5025823;28;20178;-84
2021/01/25 06:06:34;;;;;;;1.63;1.52;;;;;;;;;;5028096;28;20188;-86
2021/01/25 06:09:07;;;;;;;1.60;1.50;;;;;;;;;;5017692;28;20187;-86
2021/01/25 06:11:33;;;;;;;1.98;1.80;;;;;;;;;;5019478;28;20238;-86
2021/01/25 06:14:17;;;;;;;3.70;1.73;;;;;;;;;;5012532;28;20196;-86
2021/01/25 06:16:44;;;;;;;2.80;2.28;;;;;;;;;;5042153;28;20209;-85
2021/01/25 06:19:10;;;;;;;1.98;1.77;;;;;;;;;;5027664;28;20182;-85
2021/01/25 06:21:40;;;;;;;2.80;2.10;;;;;;;;;;5037334;28;20170;-86
2021/01/25 06:24:11;;;;;;;2.97;2.05;;;;;;;;;;5026025;28;20181;-85
2021/01/25 06:26:37;;;;;;;5.10;2.13;;;;;;;;;;5041995;28;20192;-83
2021/01/25 06:29:04;;;;;;;2.35;1.98;;;;;;;;;;5033744;28;20190;-83
2021/01/25 06:31:34;;;;;;;2.45;2.25;;;;;;;;;;5031396;28;20225;-86
2021/01/25 06:34:02;;;;;;;1.67;1.52;;;;;;;;;;5046336;28;20257;-86
2021/01/25 06:36:28;;;;;;;2.95;1.65;;;;;;;;;;5043234;28;20269;-85
2021/01/25 06:38:55;;;;;;;1.95;1.83;;;;;;;;;;5048605;28;20198;-87
2021/01/25 06:41:21;;;;;;;1.90;1.77;;;;;;;;;;5050892;28;20189;-83
2021/01/25 06:43:48;;;;;;;2.15;1.95;;;;;;;;;;5043000;28;20189;-86
2021/01/25 06:46:18;;;;;;;2.60;2.10;;;;;;;;;;5033017;28;20628;-84
2021/01/25 06:48:47;;;;;;;4.13;2.60;;;;;;;;;;5046997;28;20182;-86
2021/01/25 06:51:14;;;;;;;1.63;1.52;;;;;;;;;;5043295;28;20205;-84
2021/01/25 06:53:41;;;;;;;2.08;1.92;;;;;;;;;;5055238;28;21766;-83
2021/01/25 06:56:07;;;;;;;3.10;2.05;;;;;;;;;;5048122;28;20228;-84
2021/01/25 06:58:33;;;;;;;2.05;1.83;;;;;;;;;;5046294;28;20187;-85
2021/01/25 07:01:09;;;;;;;3.58;2.53;;;;;;;;;;5045522;28;20185;-85
2021/01/25 07:03:55;;;;;;;2.13;1.92;;;;;;;;;;5041378;28;20341;-87
2021/01/25 07:06:22;;;;;;;2.88;2.58;;;;;;;;;;5031933;28;20185;-85
2021/01/25 07:08:57;;;;;;;2.28;1.98;;;;;;;;;;5053999;28;20189;-84
2021/01/25 07:11:26;;;;;;;3.90;2.67;;;;;;;;;;5033792;28;20185;-85
2021/01/25 07:13:52;;;;;;;2.40;2.20;;;;;;;;;;5043086;28;20182;-86
2021/01/25 07:16:18;;;;;;;2.95;2.40;;;;;;;;;;5045624;28;20197;-85
2021/01/25 07:18:44;;;;;;;3.08;2.58;;;;;;;;;;5054189;28;20213;-87
2021/01/25 07:21:13;;;;;;;2.33;2.03;;;;;;;;;;5039203;28;20178;-87
2021/01/25 07:23:41;;;;;;;2.38;2.17;;;;;;;;;;5034877;28;20196;-83
2021/01/25 07:26:07;;;;;;;3.15;2.85;;;;;;;;;;5040783;28;20208;-85
2021/01/25 07:28:33;;;;;;;3.30;2.80;;;;;;;;;;5034335;28;20199;-85
2021/01/25 07:31:00;;;;;;;2.28;2.08;;;;;;;;;;5034485;28;20398;-85
2021/01/25 07:33:26;;;;;;;5.18;2.80;;;;;;;;;;5041393;28;20210;-86
2021/01/25 07:35:53;;;;;;;2.90;2.70;;;;;;;;;;5036626;28;20202;-85
2021/01/25 07:38:20;;;;;;;3.72;2.38;;;;;;;;;;5035929;28;20210;-84
2021/01/25 07:40:46;;;;;;;4.50;2.67;;;;;;;;;;5044961;28;20205;-85
2021/01/25 07:43:15;;;;;;;2.35;2.03;;;;;;;;;;5041991;28;20186;-88
2021/01/25 07:45:41;;;;;;;4.10;2.53;;;;;;;;;;5042898;28;20201;-85
2021/01/25 07:48:09;;;;;;;3.20;2.53;;;;;;;;;;5035840;28;20190;-87
2021/01/25 07:50:35;;;;;;;3.22;2.28;;;;;;;;;;5033962;28;20196;-88
2021/01/25 07:53:03;;;;;;;5.43;2.90;;;;;;;;;;5037022;28;20189;-85
2021/01/25 07:55:29;;;;;;;3.72;3.25;;;;;;;;;;5048512;28;20226;-85
2021/01/25 07:58:08;;;;;;;3.55;2.60;;;;;;;;;;5051849;28;20205;-83
2021/01/25 08:00:34;;;;;;;4.40;3.03;;;;;;;;;;5037240;28;20174;-88
2021/01/25 08:03:02;;;;;;;5.30;3.13;;;;;;;;;;5031776;28;20202;-87
2021/01/25 08:05:29;;;;;;;3.30;3.00;;;;;;;;;;5032492;28;20190;-86
2021/01/25 08:07:56;;;;;;;2.97;2.60;;;;;;;;;;5053561;28;20276;-88
2021/01/25 08:10:22;;;;;;;2.97;2.58;;;;;;;;;;5046310;28;20194;-87
2021/01/25 08:12:48;;;;;;;5.22;3.08;;;;;;;;;;5058702;28;20181;-86
2021/01/25 08:15:20;;;;;;;3.60;2.90;;;;;;;;;;5037671;28;20190;-84
2021/01/25 08:17:54;;;;;;;3.95;3.05;;;;;;;;;;5035307;28;20209;-86
2021/01/25 08:20:22;;;;;;;4.68;3.17;;;;;;;;;;5040844;28;20182;-87
2021/01/25 08:22:59;;;;;;;6.35;2.78;;;;;;;;;;5032800;28;20182;-84
2021/01/25 08:25:26;;;;;;;5.45;3.63;;;;;;;;;;5026198;28;20197;-89
2021/01/25 08:27:54;;;;;;;4.45;2.70;;;;;;;;;;5038403;28;20192;-88
2021/01/25 08:30:22;;;;;;;3.38;2.80;;;;;;;;;;5033315;28;20238;-86
2021/01/25 08:32:51;;;;;;;6.35;3.42;;;;;;;;;;5045829;28;20245;-88
2021/01/25 08:35:37;;;;;;;4.07;3.10;;;;;;;;;;5030877;28;20181;-87
2021/01/25 08:38:23;;;;;;;4.93;2.85;;;;;;;;;;5048047;28;20183;-85
2021/01/25 08:40:49;;;;;;;5.00;2.90;;;;;;;;;;5042016;28;20220;-86
2021/01/25 08:43:19;;;;;;;3.42;2.60;;;;;;;;;;5040291;28;20194;-85
2021/01/25 08:45:45;;;;;;;3.15;2.55;;;;;;;;;;5040665;28;20178;-87
2021/01/25 08:48:12;;;;;;;3.85;2.70;;;;;;;;;;5053567;28;20273;-87
2021/01/25 08:50:38;;;;;;;3.15;2.47;;;;;;;;;;5035540;28;20193;-85
2021/01/25 08:53:16;;;;;;;6.03;2.90;;;;;;;;;;5037874;28;20964;-88
2021/01/25 08:55:43;;;;;;;6.57;2.55;;;;;;;;;;5049472;28;20201;-91
2021/01/25 08:58:24;;;;;;;5.15;3.22;;;;;;;;;;5029367;28;20186;-87
2021/01/25 09:00:50;;;;;;;4.80;3.35;;;;;;;;;;5039576;28;20190;-88
2021/01/25 09:03:17;;;;;;;3.50;2.88;;;;;;;;;;5036977;28;20202;-87
2021/01/25 09:05:43;;;;;;;4.25;2.83;;;;;;;;;;5049640;28;20215;-87
2021/01/25 09:08:09;;;;;;;4.35;3.63;;;;;;;;;;5030594;28;20205;-90
2021/01/25 09:10:35;;;;;;;4.80;2.58;;;;;;;;;;5045471;28;20575;-89
2021/01/25 09:13:01;;;;;;;4.47;2.95;;;;;;;;;;5033643;28;20182;-86
2021/01/25 09:15:28;;;;;;;3.92;2.88;;;;;;;;;;5039904;28;20629;-88
2021/01/25 09:17:55;;;;;;;4.93;3.45;;;;;;;;;;5036076;28;20174;-87
2021/01/25 09:20:21;;;;;;;4.25;2.05;;;;;;;;;;5027435;28;20254;-86
2021/01/25 09:22:47;;;;;;;2.78;2.58;;;;;;;;;;5036532;28;20249;-88
2021/01/25 09:25:14;;;;;;;4.20;2.30;;;;;;;;;;5047961;28;20182;-87
2021/01/25 09:27:40;;;;;;;4.72;2.95;;;;;;;;;;5029983;28;20208;-85
2021/01/25 09:30:07;;;;;;;3.22;2.92;;;;;;;;;;5047665;28;20225;-86
2021/01/25 09:32:34;;;;;;;6.30;3.33;;;;;;;;;;5032484;28;20221;-88
2021/01/25 09:35:00;;;;;;;6.03;2.90;;;;;;;;;;5027376;28;20205;-88
2021/01/25 09:37:25;;;;;;;6.30;3.10;;;;;;;;;;5034511;28;20551;-87
2021/01/25 09:39:51;;;;;;;6.00;3.20;;;;;;;;;;5030466;28;20188;-82
2021/01/25 09:42:18;;;;;;;2.80;2.60;;;;;;;;;;5038653;28;20249;-87
2021/01/25 09:44:44;;;;;;;7.90;3.28;;;;;;;;;;5036862;28;20188;-86
2021/01/25 09:47:10;;;;;;;4.25;3.15;;;;;;;;;;5042110;28;20186;-90
2021/01/25 09:49:36;;;;;;;6.38;2.83;;;;;;;;;;5042307;28;20201;-87
2021/01/25 09:52:02;;;;;;;3.90;3.50;;;;;;;;;;5046322;28;20182;-86
2021/01/25 09:54:28;;;;;;;4.40;2.87;;;;;;;;;;5037017;28;20279;-88
2021/01/25 09:56:54;;;;;;;3.72;3.20;;;;;;;;;;5046021;28;20823;-87
2021/01/25 09:59:20;;;;;;;4.10;3.13;;;;;;;;;;5038811;28;20186;-87
2021/01/25 10:01:46;;;;;;;3.20;2.90;;;;;;;;;;5056543;28;20535;-89
2021/01/25 10:04:12;;;;;;;3.72;3.20;;;;;;;;;;5034991;28;20190;-87
2021/01/25 10:06:38;;;;;;;3.03;2.72;;;;;;;;;;5037069;28;20178;-85
2021/01/25 10:09:04;;;;;;;3.20;2.90;;;;;;;;;;5047758;28;20186;-87
2021/01/25 10:11:30;;;;;;;4.00;3.15;;;;;;;;;;5038024;28;20186;-86
2021/01/25 10:13:56;;;;;;;6.75;3.10;;;;;;;;;;5028669;28;20192;-86
2021/01/25 10:16:22;;;;;;;4.10;3.10;;;;;;;;;;5028773;28;20202;-85
2021/01/25 10:18:49;;;;;;;5.82;3.90;;;;;;;;;;5044882;28;20214;-86
2021/01/25 10:21:16;;;;;;;4.20;3.33;;;;;;;;;;5029879;28;20186;-87
2021/01/25 10:23:43;;;;;;;3.97;3.42;;;;;;;;;;5037098;28;20269;-86
2021/01/25 10:26:09;;;;;;;4.13;3.67;;;;;;;;;;5052195;28;20198;-88
2021/01/25 10:28:35;;;;;;;3.70;3.10;;;;;;;;;;5030277;28;20210;-87
2021/01/25 10:31:01;;;;;;;5.47;3.10;;;;;;;;;;5029574;28;20201;-86
2021/01/25 10:33:26;;;;;;;9.10;3.42;;;;;;;;;;5042652;28;20478;-88
2021/01/25 10:35:52;;;;;;;5.82;2.90;;;;;;;;;;5055203;28;20206;-86
2021/01/25 10:38:19;;;;;;;5.10;3.85;;;;;;;;;;5039977;28;20186;-86
2021/01/25 10:40:45;;;;;;;4.85;3.45;;;;;;;;;;5051843;28;20253;-87
2021/01/25 10:43:11;;;;;;;5.10;3.17;;;;;;;;;;5033140;28;20190;-87
2021/01/25 10:45:37;;;;;;;4.20;2.95;;;;;;;;;;5043958;28;20213;-86
2021/01/25 10:48:04;;;;;;;4.10;2.92;;;;;;;;;;5052989;28;20210;-86
2021/01/25 10:50:29;;;;;;;4.78;3.45;;;;;;;;;;5036597;28;20288;-86
2021/01/25 10:52:55;;;;;;;5.45;3.20;;;;;;;;;;5044854;28;20187;-86
2021/01/25 10:55:21;;;;;;;3.60;3.30;;;;;;;;;;5043334;28;20196;-86
2021/01/25 10:57:47;;;;;;;5.40;3.43;;;;;;;;;;5040223;28;20253;-84
2021/01/25 11:00:15;;;;;;;6.47;3.25;;;;;;;;;;5038664;28;20490;-87
2021/01/25 11:02:42;;;;;;;5.55;2.60;;;;;;;;;;5054026;28;20189;-87
2021/01/25 11:05:08;;;;;;;6.20;3.22;;;;;;;;;;5033986;28;20204;-85
2021/01/25 11:07:35;;;;;;;4.55;2.92;;;;;;;;;;5039575;28;20193;-85
2021/01/25 11:10:01;;;;;;;3.92;3.15;;;;;;;;;;5036209;28;20258;-84
2021/01/25 11:12:27;;;;;;;11.25;4.07;;;;;;;;;;5042066;28;20174;-89
2021/01/25 11:14:53;;;;;;;3.20;2.92;;;;;;;;;;5055488;28;20192;-86
2021/01/25 11:17:19;;;;;;;8.18;7.10;;;;;;;;;;5036861;28;20223;-86
2021/01/25 11:19:45;;;;;;;5.07;3.70;;;;;;;;;;5049676;28;20272;-89
2021/01/25 11:22:11;;;;;;;5.63;5.00;;;;;;;;;;5031510;28;20433;-88
2021/01/25 11:24:37;;;;;;;7.70;3.73;;;;;;;;;;5044033;28;20173;-86
2021/01/25 11:27:04;;;;;;;4.15;3.22;;;;;;;;;;5041802;28;20444;-86
2021/01/25 11:29:31;;;;;;;8.05;3.40;;;;;;;;;;5041935;28;20280;-87
2021/01/25 11:32:04;;;;;;;3.42;3.13;;;;;;;;;;5042669;28;20286;-86
2021/01/25 11:34:30;;;;;;;3.90;2.95;;;;;;;;;;5030262;28;20476;-88
2021/01/25 11:36:56;;;;;;;3.30;3.00;;;;;;;;;;5024503;28;20582;-85
2021/01/25 11:39:22;;;;;;;6.53;3.53;;;;;;;;;;5037311;28;20225;-88
2021/01/25 11:41:48;;;;;;;5.15;2.80;;;;;;;;;;5015830;28;20179;-85
2021/01/25 11:44:15;;;;;;;5.18;3.38;;;;;;;;;;5021037;28;20611;-87
2021/01/25 11:46:41;;;;;;;6.50;3.25;;;;;;;;;;5035282;28;20192;-87
2021/01/25 11:49:07;;;;;;;5.78;3.72;;;;;;;;;;5027406;28;20193;-88
2021/01/25 11:51:33;;;;;;;4.30;3.30;;;;;;;;;;5026363;28;20195;-87
2021/01/25 11:53:59;;;;;;;2.72;2.47;;;;;;;;;;5024448;28;20182;-87
2021/01/25 11:56:25;;;;;;;5.15;3.00;;;;;;;;;;5037460;28;20213;-88
2021/01/25 11:58:51;;;;;;;3.90;3.50;;;;;;;;;;5040928;28;20185;-87
2021/01/25 12:01:17;;;;;;;2.60;2.38;;;;;;;;;;5041223;28;20185;-86
2021/01/25 12:03:43;;;;;;;7.38;3.75;;;;;;;;;;5027515;28;20189;-88
2021/01/25 12:06:09;;;;;;;5.43;3.35;;;;;;;;;;5022150;28;20277;-92
2021/01/25 12:08:35;;;;;;;4.55;3.08;;;;;;;;;;5021136;28;20224;-86
2021/01/25 12:11:05;;;;;;;4.57;2.67;;;;;;;;;;5037389;28;20186;-87
2021/01/25 12:13:31;;;;;;;5.95;3.10;;;;;;;;;;5017517;28;20556;-86
2021/01/25 12:15:58;;;;;;;5.55;2.53;;;;;;;;;;5028675;28;20206;-85
2021/01/25 12:18:26;;;;;;;4.55;2.60;;;;;;;;;;5021430;28;20175;-86
2021/01/25 12:20:52;;;;;;;5.07;2.40;;;;;;;;;;5039015;28;20320;-87
2021/01/25 12:23:18;;;;;;;9.27;3.38;;;;;;;;;;5038156;28;20271;-93
2021/01/25 12:25:44;;;;;;;9.30;3.90;;;;;;;;;;5038389;28;20182;-86
2021/01/25 12:28:10;;;;;;;3.80;2.50;;;;;;;;;;5028044;28;20256;-88
2021/01/25 12:30:36;;;;;;;4.38;2.90;;;;;;;;;;5025210;28;20467;-88
2021/01/25 12:33:02;;;;;;;4.63;2.40;;;;;;;;;;5030962;28;20226;-86
2021/01/25 12:35:29;;;;;;;4.70;2.15;;;;;;;;;;5041700;28;20468;-82
2021/01/25 12:37:56;;;;;;;3.08;1.90;;;;;;;;;;5040841;28;20173;-84
2021/01/25 12:40:23;;;;;;;6.15;2.53;;;;;;;;;;5046144;28;20236;-91
2021/01/25 12:42:49;;;;;;;5.57;2.30;;;;;;;;;;5033788;28;20217;-86
2021/01/25 12:45:15;;;;;;;2.67;1.80;;;;;;;;;;5039501;28;20693;-86
2021/01/25 12:47:41;;;;;;;3.20;1.80;;;;;;;;;;5047422;28;20600;-86
2021/01/25 12:50:08;;;;;;;6.93;2.28;;;;;;;;;;5028980;28;20186;-89
2021/01/25 12:52:34;;;;;;;1.67;1.58;;;;;;;;;;5046163;28;20646;-85
2021/01/25 12:55:10;;;;;;;2.53;1.98;;;;;;;;;;5043737;28;20272;-85
2021/01/25 12:57:41;;;;;;;5.30;1.98;;;;;;;;;;5038222;28;20209;-84
2021/01/25 13:00:12;;;;;;;10.43;2.67;;;;;;;;;;5050763;28;20230;-88
2021/01/25 13:02:38;;;;;;;2.88;2.28;;;;;;;;;;5030144;28;20193;-88
2021/01/25 13:05:04;;;;;;;3.85;2.67;;;;;;;;;;5033384;28;20177;-86
2021/01/25 13:07:30;;;;;;;7.88;3.15;;;;;;;;;;5034871;28;20220;-87
2021/01/25 13:09:57;;;;;;;3.97;1.90;;;;;;;;;;5029399;28;20183;-82
2021/01/25 13:12:23;;;;;;;7.20;2.33;;;;;;;;;;5043119;28;20458;-86
2021/01/25 13:14:49;;;;;;;2.38;2.15;;;;;;;;;;5037659;28;20192;-84
2021/01/25 13:17:15;;;;;;;5.30;2.03;;;;;;;;;;5034565;28;20211;-86
2021/01/25 13:19:41;;;;;;;1.70;1.60;;;;;;;;;;5037288;28;20468;-86
2021/01/25 13:22:07;;;;;;;6.50;2.57;;;;;;;;;;5050243;28;20197;-86
2021/01/25 13:24:33;;;;;;;3.80;2.22;;;;;;;;;;5029931;28;20418;-87
2021/01/25 13:26:59;;;;;;;8.05;3.00;;;;;;;;;;5049296;28;20657;-84
2021/01/25 13:29:25;;;;;;;5.97;2.70;;;;;;;;;;5032944;28;20185;-87
2021/01/25 13:31:51;;;;;;;5.65;1.67;;;;;;;;;;5044499;28;20480;-88
2021/01/25 13:34:17;;;;;;;2.88;1.30;;;;;;;;;;5030071;28;20282;-88
2021/01/25 13:36:43;;;;;;;3.85;1.73;;;;;;;;;;5042105;28;20209;-89
2021/01/25 13:39:09;;;;;;;3.70;1.73;;;;;;;;;;5031703;28;20183;-87
2021/01/25 13:41:35;;;;;;;5.85;2.13;;;;;;;;;;5034312;28;20194;-87
2021/01/25 13:44:02;;;;;;;3.38;2.05;;;;;;;;;;5030285;28;20253;-86
2021/01/25 13:46:28;;;;;;;4.05;2.20;;;;;;;;;;5024436;28;20198;-87
2021/01/25 13:48:54;;;;;;;3.40;2.10;;;;;;;;;;5044489;28;20181;-85
2021/01/25 13:51:20;;;;;;;2.47;1.85;;;;;;;;;;5037532;28;20237;-87
2021/01/25 13:53:46;;;;;;;3.05;1.92;;;;;;;;;;5030116;28;20185;-86
2021/01/25 13:56:12;;;;;;;2.92;2.03;;;;;;;;;;5055506;28;20266;-88
2021/01/25 13:58:38;;;;;;;8.45;2.35;;;;;;;;;;5039714;28;20216;-91
2021/01/25 14:01:06;;;;;;;5.83;1.90;;;;;;;;;;5044272;28;20178;-89
2021/01/25 14:03:33;;;;;;;4.18;1.88;;;;;;;;;;5040541;28;20511;-86
2021/01/25 14:05:59;;;;;;;2.50;1.50;;;;;;;;;;5039325;28;20196;-87
2021/01/25 14:08:25;;;;;;;4.90;2.22;;;;;;;;;;5039026;28;20193;-91
2021/01/25 14:10:51;;;;;;;3.80;1.60;;;;;;;;;;5032719;28;20232;-86
2021/01/25 14:13:18;;;;;;;6.28;2.00;;;;;;;;;;5053578;28;20213;-95
2021/01/25 14:15:44;;;;;;;2.80;1.58;;;;;;;;;;5042514;28;20194;-86
2021/01/25 14:18:10;;;;;;;2.13;1.73;;;;;;;;;;5055957;28;20186;-87
2021/01/25 14:20:36;;;;;;;2.15;1.10;;;;;;;;;;5040852;28;20197;-88
2021/01/25 14:23:02;;;;;;;3.70;1.75;;;;;;;;;;5037803;28;20613;-88
2021/01/25 14:25:28;;;;;;;1.60;1.50;;;;;;;;;;5046228;28;20209;-88
2021/01/25 14:27:54;;;;;;;5.10;1.80;;;;;;;;;;5047950;28;20674;-87
2021/01/25 14:30:22;;;;;;;2.50;1.35;;;;;;;;;;5042419;28;20246;-84
2021/01/25 14:32:48;;;;;;;1.70;1.30;;;;;;;;;;5040597;28;20268;-88
2021/01/25 14:35:15;;;;;;;2.78;1.23;;;;;;;;;;5054868;28;20186;-90
2021/01/25 14:37:41;;;;;;;6.55;1.70;;;;;;;;;;5040153;28;20220;-86
2021/01/25 14:40:13;;;;;;;6.97;1.52;;;;;;;;;;5041080;28;20170;-87
2021/01/25 14:42:41;;;;;;;6.32;1.52;;;;;;;;;;5044372;28;20212;-86